Time,TemperatureF,DewpointF,PressureIn,WindDirection,WindDirectionDegrees,WindSpeedMPH,WindSpeedGustMPH,Humidity,HourlyPrecipIn,Conditions,Clouds,dailyrainin,SoftwareType,DateUTC
2013-05-01 00:04:00,57.6,55.3,29.88,SSW,199,0.0,0.0,92,0.00,,,0.00,Wunderground v.1.15,2013-05-01 07:04:00,
2013-05-01 00:14:00,57.6,55.3,29.88,ESE,119,0.0,0.0,92,0.00,,,0.00,Wunderground v.1.15,2013-05-01 07:14:00,
2013-05-01 00:24:00,57.5,55.2,29.89,SE,134,0.0,0.0,92,0.00,,,0.00,Wunderground v.1.15,2013-05-01 07:24:00,
2013-05-01 00:33:00,57.5,55.5,29.89,ESE,110,0.0,0.0,93,0.00,,,0.00,Wunderground v.1.15,2013-05-01 07:33:00,
2013-05-01 00:44:00,57.5,55.5,29.89,East,90,0.0,0.0,93,0.00,,,0.00,Wunderground v.1.15,2013-05-01 07:44:00,
2013-05-01 00:54:00,57.7,55.7,29.89,East,90,0.0,0.0,93,0.00,,,0.00,Wunderground v.1.15,2013-05-01 07:54:00,
2013-05-01 01:03:00,57.7,55.7,29.89,SSE,161,0.0,0.0,93,0.00,,,0.00,Wunderground v.1.15,2013-05-01 08:03:00,
2013-05-01 01:14:00,57.8,55.5,29.89,SSE,161,0.0,0.0,92,0.00,,,0.00,Wunderground v.1.15,2013-05-01 08:14:00,
2013-05-01 01:24:00,58.0,55.7,29.89,SE,126,0.0,0.0,92,0.00,,,0.00,Wunderground v.1.15,2013-05-01 08:24:00,
2013-05-01 01:34:00,58.0,55.7,29.89,SE,126,0.0,0.0,92,0.00,,,0.00,Wunderground v.1.15,2013-05-01 08:34:00,
2013-05-01 01:43:00,58.0,55.7,29.89,SE,126,0.0,0.0,92,0.00,,,0.00,Wunderground v.1.15,2013-05-01 08:43:00,
2013-05-01 01:54:00,58.1,55.8,29.89,SE,126,0.0,0.0,92,0.00,,,0.00,Wunderground v.1.15,2013-05-01 08:54:00,
2013-05-01 02:03:00,58.1,55.8,29.88,SE,126,0.0,0.0,92,0.00,,,0.00,Wunderground v.1.15,2013-05-01 09:03:00,
2013-05-01 02:14:00,58.0,55.7,29.89,South,176,0.0,0.0,92,0.00,,,0.00,Wunderground v.1.15,2013-05-01 09:14:00,
2013-05-01 02:24:00,58.0,55.7,29.89,South,171,0.0,0.0,92,0.00,,,0.00,Wunderground v.1.15,2013-05-01 09:24:00,
2013-05-01 02:34:00,58.0,55.7,29.89,East,98,0.0,0.0,92,0.00,,,0.00,Wunderground v.1.15,2013-05-01 09:34:00,
2013-05-01 02:44:00,58.2,56.2,29.89,East,98,0.0,0.0,93,0.00,,,0.00,Wunderground v.1.15,2013-05-01 09:44:00,
2013-05-01 02:54:00,58.1,55.8,29.89,East,96,0.0,0.0,92,0.00,,,0.00,Wunderground v.1.15,2013-05-01 09:54:00,
2013-05-01 03:03:00,58.1,55.8,29.89,East,96,0.0,0.0,92,0.00,,,0.00,Wunderground v.1.15,2013-05-01 10:03:00,
2013-05-01 03:13:00,58.1,55.8,29.89,East,96,0.0,0.0,92,0.00,,,0.00,Wunderground v.1.15,2013-05-01 10:13:00,
2013-05-01 03:24:00,58.0,55.7,29.89,East,96,0.0,0.0,92,0.00,,,0.00,Wunderground v.1.15,2013-05-01 10:24:00,
2013-05-01 03:34:00,58.1,55.8,29.89,East,96,0.0,0.0,92,0.00,,,0.00,Wunderground v.1.15,2013-05-01 10:34:00,
2013-05-01 03:43:00,58.1,56.1,29.89,East,96,0.0,0.0,93,0.00,,,0.00,Wunderground v.1.15,2013-05-01 10:43:00,
2013-05-01 03:54:00,58.1,56.1,29.89,East,96,0.0,0.0,93,0.00,,,0.00,Wunderground v.1.15,2013-05-01 10:54:00,
2013-05-01 04:04:00,58.1,56.1,29.89,East,96,0.0,0.0,93,0.00,,,0.00,Wunderground v.1.15,2013-05-01 11:04:00,
2013-05-01 04:14:00,58.1,56.1,29.89,East,96,0.0,0.0,93,0.00,,,0.01,Wunderground v.1.15,2013-05-01 11:14:00,
2013-05-01 04:24:00,58.0,56.0,29.89,East,96,0.0,0.0,93,0.00,,,0.01,Wunderground v.1.15,2013-05-01 11:24:00,
2013-05-01 04:33:00,58.0,56.0,29.89,East,96,0.0,0.0,93,0.00,,,0.01,Wunderground v.1.15,2013-05-01 11:33:00,
2013-05-01 04:44:00,58.0,56.3,29.89,East,96,0.0,0.0,94,0.00,,,0.01,Wunderground v.1.15,2013-05-01 11:44:00,
2013-05-01 04:54:00,58.0,56.3,29.89,SSE,168,0.0,0.0,94,0.00,,,0.01,Wunderground v.1.15,2013-05-01 11:54:00,
2013-05-01 05:03:00,57.9,56.2,29.90,South,178,0.0,0.0,94,0.00,,,0.01,Wunderground v.1.15,2013-05-01 12:03:00,
2013-05-01 05:13:00,57.9,55.9,29.90,South,189,0.0,0.0,93,0.00,,,0.01,Wunderground v.1.15,2013-05-01 12:13:00,
2013-05-01 05:23:00,58.0,56.0,29.90,South,177,0.0,0.0,93,0.00,,,0.01,Wunderground v.1.15,2013-05-01 12:23:00,
2013-05-01 05:34:00,58.1,56.1,29.90,South,177,0.0,0.0,93,0.00,,,0.01,Wunderground v.1.15,2013-05-01 12:34:00,
2013-05-01 05:44:00,58.2,56.2,29.90,South,177,0.0,0.0,93,0.00,,,0.01,Wunderground v.1.15,2013-05-01 12:44:00,
2013-05-01 05:54:00,58.2,55.9,29.91,South,177,0.0,0.0,92,0.00,,,0.01,Wunderground v.1.15,2013-05-01 12:54:00,
2013-05-01 06:03:00,58.3,56.0,29.91,South,177,0.0,0.0,92,0.00,,,0.01,Wunderground v.1.15,2013-05-01 13:03:00,
2013-05-01 06:13:00,58.3,56.0,29.92,South,177,0.0,0.0,92,0.00,,,0.01,Wunderground v.1.15,2013-05-01 13:13:00,
2013-05-01 06:23:00,58.4,56.4,29.92,South,177,0.0,0.0,93,0.00,,,0.01,Wunderground v.1.15,2013-05-01 13:23:00,
2013-05-01 06:34:00,58.5,56.5,29.92,South,177,0.0,0.0,93,0.00,,,0.01,Wunderground v.1.15,2013-05-01 13:34:00,
2013-05-01 06:44:00,58.5,56.5,29.93,South,177,0.0,0.0,93,0.00,,,0.01,Wunderground v.1.15,2013-05-01 13:44:00,
2013-05-01 06:53:00,58.5,56.5,29.93,South,177,0.0,0.0,93,0.00,,,0.01,Wunderground v.1.15,2013-05-01 13:53:00,
2013-05-01 07:04:00,58.4,56.4,29.94,South,177,0.0,0.0,93,0.00,,,0.01,Wunderground v.1.15,2013-05-01 14:04:00,
2013-05-01 07:14:00,58.4,56.4,29.94,South,177,0.0,0.0,93,0.00,,,0.01,Wunderground v.1.15,2013-05-01 14:14:00,
2013-05-01 07:24:00,58.5,56.2,29.95,South,177,0.0,0.0,92,0.00,,,0.01,Wunderground v.1.15,2013-05-01 14:24:00,
2013-05-01 07:33:00,58.5,56.2,29.95,South,177,0.0,0.0,92,0.00,,,0.01,Wunderground v.1.15,2013-05-01 14:33:00,
2013-05-01 07:44:00,58.6,56.3,29.96,South,177,0.0,0.0,92,0.00,,,0.01,Wunderground v.1.15,2013-05-01 14:44:00,
2013-05-01 07:54:00,58.7,56.4,29.96,South,177,0.0,0.0,92,0.00,,,0.01,Wunderground v.1.15,2013-05-01 14:54:00,
2013-05-01 08:03:00,58.8,56.5,29.96,South,177,0.0,0.0,92,0.00,,,0.01,Wunderground v.1.15,2013-05-01 15:03:00,
2013-05-01 08:13:00,59.0,56.7,29.96,South,177,0.0,0.0,92,0.00,,,0.01,Wunderground v.1.15,2013-05-01 15:13:00,
2013-05-01 08:23:00,59.3,56.4,29.96,South,173,0.0,0.0,90,0.00,,,0.01,Wunderground v.1.15,2013-05-01 15:23:00,
2013-05-01 08:34:00,59.7,56.5,29.96,SSW,204,0.0,0.0,89,0.00,,,0.01,Wunderground v.1.15,2013-05-01 15:34:00,
2013-05-01 08:44:00,60.0,56.4,29.96,SSW,206,0.0,0.0,88,0.00,,,0.01,Wunderground v.1.15,2013-05-01 15:44:00,
2013-05-01 08:54:00,60.4,56.8,29.97,South,188,0.0,0.0,88,0.00,,,0.01,Wunderground v.1.15,2013-05-01 15:54:00,
2013-05-01 09:04:00,60.5,56.3,29.97,West,266,0.0,0.0,86,0.00,,,0.01,Wunderground v.1.15,2013-05-01 16:04:00,
2013-05-01 09:14:00,60.7,56.5,29.97,SSW,212,0.0,0.0,86,0.00,,,0.01,Wunderground v.1.15,2013-05-01 16:14:00,
2013-05-01 09:23:00,60.9,56.4,29.98,South,188,0.0,0.0,85,0.00,,,0.01,Wunderground v.1.15,2013-05-01 16:23:00,
2013-05-01 09:34:00,60.9,56.4,29.97,South,171,0.0,0.0,85,0.00,,,0.01,Wunderground v.1.15,2013-05-01 16:34:00,
2013-05-01 09:44:00,61.1,55.9,29.97,SSW,205,1.0,1.0,83,0.00,,,0.01,Wunderground v.1.15,2013-05-01 16:44:00,
2013-05-01 09:54:00,61.4,55.9,29.98,South,182,0.0,0.0,82,0.00,,,0.01,Wunderground v.1.15,2013-05-01 16:54:00,
2013-05-01 10:04:00,62.1,56.5,29.98,SW,236,0.0,0.0,82,0.00,,,0.01,Wunderground v.1.15,2013-05-01 17:04:00,
2013-05-01 10:14:00,62.6,57.0,29.98,WSW,249,0.0,0.0,82,0.00,,,0.01,Wunderground v.1.15,2013-05-01 17:14:00,
2013-05-01 10:23:00,62.5,56.9,29.98,WSW,244,1.0,1.0,82,0.00,,,0.01,Wunderground v.1.15,2013-05-01 17:23:00,
2013-05-01 10:34:00,62.4,56.5,29.98,SSW,204,2.0,2.0,81,0.00,,,0.01,Wunderground v.1.15,2013-05-01 17:34:00,
2013-05-01 10:43:00,62.9,56.6,29.98,WSW,255,2.0,3.0,80,0.00,,,0.01,Wunderground v.1.15,2013-05-01 17:43:00,
2013-05-01 10:54:00,63.3,56.3,29.98,SSW,213,1.0,1.0,78,0.00,,,0.01,Wunderground v.1.15,2013-05-01 17:54:00,
2013-05-01 11:03:00,64.6,57.2,29.98,WNW,286,0.0,5.0,77,0.00,,,0.01,Wunderground v.1.15,2013-05-01 18:03:00,
2013-05-01 11:13:00,64.1,57.5,29.99,WSW,238,2.0,2.0,79,0.00,,,0.01,Wunderground v.1.15,2013-05-01 18:13:00,
2013-05-01 11:24:00,64.0,55.9,29.99,WNW,292,2.0,6.0,75,0.00,,,0.01,Wunderground v.1.15,2013-05-01 18:24:00,
2013-05-01 11:33:00,63.6,56.3,29.98,WNW,300,2.0,2.0,77,0.00,,,0.01,Wunderground v.1.15,2013-05-01 18:33:00,
2013-05-01 11:44:00,63.4,56.8,29.98,SW,215,3.0,5.0,79,0.00,,,0.01,Wunderground v.1.15,2013-05-01 18:44:00,
2013-05-01 11:54:00,63.1,56.1,29.99,West,265,3.0,6.0,78,0.00,,,0.01,Wunderground v.1.15,2013-05-01 18:54:00,
2013-05-01 12:03:00,63.3,57.0,29.98,West,273,3.0,3.0,80,0.00,,,0.01,Wunderground v.1.15,2013-05-01 19:03:00,
2013-05-01 12:13:00,63.1,56.5,29.98,West,275,3.0,3.0,79,0.00,,,0.01,Wunderground v.1.15,2013-05-01 19:13:00,
2013-05-01 12:24:00,63.0,56.7,29.98,NW,304,4.0,4.0,80,0.00,,,0.01,Wunderground v.1.15,2013-05-01 19:24:00,
2013-05-01 12:33:00,63.0,57.1,29.98,WNW,289,4.0,4.0,81,0.00,,,0.01,Wunderground v.1.15,2013-05-01 19:33:00,
2013-05-01 12:43:00,63.0,56.7,29.97,West,268,4.0,4.0,80,0.00,,,0.01,Wunderground v.1.15,2013-05-01 19:43:00,
2013-05-01 12:54:00,63.3,56.7,29.97,West,261,5.0,5.0,79,0.00,,,0.01,Wunderground v.1.15,2013-05-01 19:54:00,
2013-05-01 13:04:00,63.6,56.6,29.97,WSW,244,4.0,5.0,78,0.00,,,0.01,Wunderground v.1.15,2013-05-01 20:04:00,
2013-05-01 13:14:00,63.7,57.1,29.97,WNW,289,5.0,7.0,79,0.00,,,0.01,Wunderground v.1.15,2013-05-01 20:14:00,
2013-05-01 13:23:00,64.2,57.2,29.97,SW,227,3.0,3.0,78,0.00,,,0.01,Wunderground v.1.15,2013-05-01 20:23:00,
2013-05-01 13:34:00,64.5,57.5,29.97,West,269,4.0,7.0,78,0.00,,,0.01,Wunderground v.1.15,2013-05-01 20:34:00,
2013-05-01 13:44:00,64.3,56.9,29.97,WSW,243,4.0,4.0,77,0.00,,,0.01,Wunderground v.1.15,2013-05-01 20:44:00,
2013-05-01 13:54:00,64.3,56.9,29.97,NW,316,5.0,6.0,77,0.00,,,0.01,Wunderground v.1.15,2013-05-01 20:54:00,
2013-05-01 14:04:00,64.3,56.9,29.96,West,272,5.0,8.0,77,0.00,,,0.01,Wunderground v.1.15,2013-05-01 21:04:00,
2013-05-01 14:14:00,63.7,56.7,29.96,West,269,5.0,5.0,78,0.00,,,0.01,Wunderground v.1.15,2013-05-01 21:14:00,
2013-05-01 14:24:00,63.8,56.4,29.96,West,271,5.0,5.0,77,0.00,,,0.01,Wunderground v.1.15,2013-05-01 21:24:00,
2013-05-01 14:34:00,64.2,56.8,29.96,WSW,253,4.0,8.0,77,0.00,,,0.01,Wunderground v.1.15,2013-05-01 21:34:00,
2013-05-01 14:43:00,64.5,56.8,29.96,WNW,283,5.0,5.0,76,0.00,,,0.01,Wunderground v.1.15,2013-05-01 21:43:00,
2013-05-01 14:54:00,64.4,56.7,29.96,West,281,4.0,4.0,76,0.00,,,0.01,Wunderground v.1.15,2013-05-01 21:54:00,
2013-05-01 15:04:00,64.1,56.4,29.96,WSW,239,5.0,5.0,76,0.00,,,0.01,Wunderground v.1.15,2013-05-01 22:04:00,
2013-05-01 15:14:00,64.5,56.8,29.95,West,259,4.0,4.0,76,0.00,,,0.01,Wunderground v.1.15,2013-05-01 22:14:00,
2013-05-01 15:23:00,64.8,56.7,29.95,NW,304,4.0,11.0,75,0.00,,,0.01,Wunderground v.1.15,2013-05-01 22:23:00,
2013-05-01 15:34:00,64.3,57.3,29.95,NW,311,4.0,6.0,78,0.00,,,0.01,Wunderground v.1.15,2013-05-01 22:34:00,
2013-05-01 15:44:00,64.4,57.0,29.95,WSW,238,4.0,4.0,77,0.00,,,0.01,Wunderground v.1.15,2013-05-01 22:44:00,
2013-05-01 15:53:00,64.4,57.0,29.95,WSW,248,4.0,4.0,77,0.00,,,0.01,Wunderground v.1.15,2013-05-01 22:53:00,
2013-05-01 16:04:00,63.5,56.2,29.95,WNW,282,7.0,7.0,77,0.00,,,0.01,Wunderground v.1.15,2013-05-01 23:04:00,
2013-05-01 16:14:00,63.7,56.7,29.95,West,275,6.0,6.0,78,0.00,,,0.01,Wunderground v.1.15,2013-05-01 23:14:00,
2013-05-01 16:24:00,63.8,56.8,29.95,WNW,298,5.0,9.0,78,0.00,,,0.01,Wunderground v.1.15,2013-05-01 23:24:00,
2013-05-01 16:33:00,63.7,56.7,29.95,West,279,6.0,6.0,78,0.00,,,0.01,Wunderground v.1.15,2013-05-01 23:33:00,
2013-05-01 16:43:00,64.1,57.1,29.95,West,261,4.0,7.0,78,0.00,,,0.01,Wunderground v.1.15,2013-05-01 23:43:00,
2013-05-01 16:54:00,63.8,56.8,29.95,WNW,282,5.0,5.0,78,0.00,,,0.01,Wunderground v.1.15,2013-05-01 23:54:00,
2013-05-01 17:04:00,63.3,57.0,29.95,West,268,4.0,6.0,80,0.00,,,0.01,Wunderground v.1.15,2013-05-02 00:04:00,
2013-05-01 17:14:00,63.6,57.0,29.95,West,266,3.0,4.0,79,0.00,,,0.01,Wunderground v.1.15,2013-05-02 00:14:00,
2013-05-01 17:23:00,63.9,56.9,29.95,NW,311,3.0,6.0,78,0.00,,,0.01,Wunderground v.1.15,2013-05-02 00:23:00,
2013-05-01 17:34:00,64.1,56.7,29.95,WSW,245,3.0,3.0,77,0.00,,,0.01,Wunderground v.1.15,2013-05-02 00:34:00,
2013-05-01 17:44:00,63.7,56.4,29.95,West,261,3.0,3.0,77,0.00,,,0.01,Wunderground v.1.15,2013-05-02 00:44:00,
2013-05-01 17:54:00,64.0,56.6,29.95,WNW,290,2.0,2.0,77,0.00,,,0.01,Wunderground v.1.15,2013-05-02 00:54:00,
2013-05-01 18:04:00,63.8,56.4,29.95,WSW,252,2.0,2.0,77,0.00,,,0.01,Wunderground v.1.15,2013-05-02 01:04:00,
2013-05-01 18:14:00,64.3,57.3,29.96,West,269,1.0,1.0,78,0.00,,,0.01,Wunderground v.1.15,2013-05-02 01:14:00,
2013-05-01 18:24:00,63.4,56.8,29.96,WNW,286,3.0,3.0,79,0.00,,,0.01,Wunderground v.1.15,2013-05-02 01:24:00,
2013-05-01 18:33:00,63.2,56.9,29.96,WSW,254,2.0,2.0,80,0.00,,,0.01,Wunderground v.1.15,2013-05-02 01:33:00,
2013-05-01 18:44:00,62.9,57.3,29.96,WSW,238,1.0,1.0,82,0.00,,,0.01,Wunderground v.1.15,2013-05-02 01:44:00,
2013-05-01 18:53:00,62.9,57.7,29.96,West,273,0.0,0.0,83,0.00,,,0.01,Wunderground v.1.15,2013-05-02 01:53:00,
2013-05-01 19:04:00,62.1,57.2,29.97,West,265,0.0,0.0,84,0.00,,,0.01,Wunderground v.1.15,2013-05-02 02:04:00,
2013-05-01 19:14:00,61.8,57.2,29.97,WNW,284,0.0,0.0,85,0.00,,,0.01,Wunderground v.1.15,2013-05-02 02:14:00,
2013-05-01 19:23:00,61.4,56.8,29.98,WSW,249,0.0,0.0,85,0.00,,,0.01,Wunderground v.1.15,2013-05-02 02:23:00,
2013-05-01 19:34:00,61.2,57.0,29.98,West,266,0.0,0.0,86,0.00,,,0.01,Wunderground v.1.15,2013-05-02 02:34:00,
2013-05-01 19:44:00,61.0,56.8,29.99,West,263,1.0,1.0,86,0.00,,,0.01,Wunderground v.1.15,2013-05-02 02:44:00,
2013-05-01 19:54:00,60.8,56.6,29.99,West,277,1.0,2.0,86,0.00,,,0.01,Wunderground v.1.15,2013-05-02 02:54:00,
2013-05-01 20:03:00,60.7,56.8,29.99,West,278,1.0,1.0,87,0.00,,,0.01,Wunderground v.1.15,2013-05-02 03:03:00,
2013-05-01 20:13:00,60.6,57.0,30.00,West,276,0.0,0.0,88,0.00,,,0.01,Wunderground v.1.15,2013-05-02 03:13:00,
2013-05-01 20:24:00,60.4,56.5,30.01,WSW,258,0.0,0.0,87,0.00,,,0.01,Wunderground v.1.15,2013-05-02 03:24:00,
2013-05-01 20:34:00,60.3,56.7,30.02,West,277,0.0,0.0,88,0.00,,,0.01,Wunderground v.1.15,2013-05-02 03:34:00,
2013-05-01 20:43:00,60.2,56.6,30.02,West,277,0.0,0.0,88,0.00,,,0.01,Wunderground v.1.15,2013-05-02 03:43:00,
2013-05-01 20:54:00,60.0,56.4,30.02,WSW,252,0.0,0.0,88,0.00,,,0.01,Wunderground v.1.15,2013-05-02 03:54:00,
2013-05-01 21:03:00,60.0,56.7,30.03,WSW,252,0.0,0.0,89,0.00,,,0.01,Wunderground v.1.15,2013-05-02 04:03:00,
2013-05-01 21:14:00,59.9,56.6,30.03,NW,306,0.0,0.0,89,0.00,,,0.01,Wunderground v.1.15,2013-05-02 04:14:00,
2013-05-01 21:23:00,59.9,56.6,30.04,NW,306,0.0,0.0,89,0.00,,,0.01,Wunderground v.1.15,2013-05-02 04:23:00,
2013-05-01 21:34:00,59.7,56.5,30.05,NW,306,0.0,0.0,89,0.00,,,0.01,Wunderground v.1.15,2013-05-02 04:34:00,
2013-05-01 21:43:00,59.6,56.4,30.05,NW,306,0.0,0.0,89,0.00,,,0.01,Wunderground v.1.15,2013-05-02 04:43:00,
2013-05-01 21:54:00,59.5,56.3,30.06,NW,306,0.0,0.0,89,0.00,,,0.01,Wunderground v.1.15,2013-05-02 04:54:00,
2013-05-01 22:03:00,59.4,56.2,30.06,NW,306,0.0,0.0,89,0.00,,,0.01,Wunderground v.1.15,2013-05-02 05:03:00,
2013-05-01 22:13:00,59.3,56.4,30.07,NW,306,0.0,0.0,90,0.00,,,0.01,Wunderground v.1.15,2013-05-02 05:13:00,
2013-05-01 22:24:00,59.3,56.4,30.07,NW,306,0.0,0.0,90,0.00,,,0.01,Wunderground v.1.15,2013-05-02 05:24:00,
2013-05-01 22:34:00,59.3,56.4,30.07,NW,306,0.0,0.0,90,0.00,,,0.01,Wunderground v.1.15,2013-05-02 05:34:00,
2013-05-01 22:43:00,59.3,56.4,30.07,NW,306,0.0,0.0,90,0.00,,,0.01,Wunderground v.1.15,2013-05-02 05:43:00,
2013-05-01 22:53:00,59.2,56.3,30.07,NW,306,0.0,0.0,90,0.00,,,0.01,Wunderground v.1.15,2013-05-02 05:53:00,
2013-05-01 23:04:00,59.0,56.1,30.07,NW,306,0.0,0.0,90,0.00,,,0.01,Wunderground v.1.15,2013-05-02 06:04:00,
2013-05-01 23:14:00,58.9,56.0,30.07,NW,306,0.0,0.0,90,0.00,,,0.01,Wunderground v.1.15,2013-05-02 06:14:00,
2013-05-01 23:24:00,58.7,55.8,30.07,NW,306,0.0,0.0,90,0.00,,,0.01,Wunderground v.1.15,2013-05-02 06:24:00,
2013-05-01 23:33:00,58.6,55.7,30.08,NW,306,0.0,0.0,90,0.00,,,0.01,Wunderground v.1.15,2013-05-02 06:33:00,
2013-05-01 23:43:00,58.3,55.4,30.07,NW,306,0.0,0.0,90,0.00,,,0.01,Wunderground v.1.15,2013-05-02 06:43:00,
2013-05-01 23:53:00,58.0,55.4,30.08,NW,306,0.0,0.0,91,0.00,,,0.01,Wunderground v.1.15,2013-05-02 06:53:00,